Terminal Aerodrome Forecast
Issued by NWS Jacksonville, FL

Home | Current Version | Previous Version | Text Only | Print | Product List | Glossary On
Versions: 1 2 3 4 5 6 7 8 9 10 11 12 13 14 15 16 17 18 19
000
FTUS42 KJAX 052345
TAFGNV
TAF
KGNV 052345Z 0600/0624 05010G15KT P6SM FEW040 BKN200
     FM060200 02007KT P6SM OVC200
     FM061400 04012G20KT P6SM VCSH SCT030 BKN130 OVC200
     FM062300 01012G20KT P6SM VCSH SCT015 BKN030 BKN070=

USA.gov is the U.S. government's official web portal to all federal, state and local government web resources and services.